South Charleston, OH (45368)

1:18 PM EST on December 08, 2016 (GMT -0500)
Walnut Hill | | Change Station

Elev 1078 ft 39.84 °N, 83.73 °W | Updated 15 seconds ago

Snow
Snow
25.0 °F
Feels Like 14 °F
N
12.1
Wind Variable Wind from NW
Gusts 15.0 mph

Today
High -- | Low -- °F
--% Chance of Precip.
Yesterday
High -- | Low -- °F
Precip. -- in
Pressure 30.28 in
Visibility 9.0 miles
Clouds Overcast 2500 ft
Windchill 14 °F
Dew Point 10 °F
Humidity 52%
Rainfall 0.00 in
Snow Depth Not available.
7:43 AM 5:09 PM
Waxing Gibbous, 65% visible
METAR KSGH 081756Z AUTO 30016G21KT 9SM -SN OVC025 M04/M08 A3023 RMK AO2 SNB39 SLP253 P0000 60000 T10391083 11017 21050 51012
Pressure 30.28 in
Visibility 9.0 miles
Clouds Overcast 2500 ft
Windchill 14 °F
Dew Point 10 °F
Humidity 52%
Rainfall 0.00 in
Snow Depth Not available.
7:43 AM 5:09 PM
Waxing Gibbous, 65% visible
METAR KSGH 081756Z AUTO 30016G21KT 9SM -SN OVC025 M04/M08 A3023 RMK AO2 SNB39 SLP253 P0000 60000 T10391083 11017 21050 51012

10-Day Weather Forecast

Almanac

Astronomy

Dec. 08, 2016 Rise Set
Actual Time
Civil Twilight
Nautical Twilight
Astronomical Twilight
Moon
Length of Visible Light
Length of Day
Tomorrow will be .
, % of the Moon is Illuminated

Today's Extremes

State Highs State Lows

Community

WunderPhotos

Upload Photos

1,956,277 photos uploaded!

WunderBlog® & News

Nearby

Air Quality

  Air Quality AQ Index Pollutant
Not available.

Snow Depth

Station Depth Elevation

Earthquake Activity

City Distance Mag. Time & Date
Minimum magnitude displayed is 2.5.

Coastal Water Temperatures

Place Temperature

Stations

Nearby Weather Stations

Station Location Temp. Windchill Dew Point Humidity Wind Precip. Elev Updated Type
                   

Watches & Warnings

There are currently no watches in effect.